createdAt,value
2023-02-11T00:02:05.995Z,101545.25
2023-02-11T00:04:34.664Z,101511.38
2023-02-11T00:07:03.561Z,101501.03
2023-02-11T00:09:32.660Z,101549.97
2023-02-11T00:12:01.344Z,101511.13
2023-02-11T00:14:30.162Z,101545.06
2023-02-11T00:16:58.888Z,101503.91
2023-02-11T00:19:27.518Z,101570.41
2023-02-11T00:21:56.158Z,101543.59
2023-02-11T00:24:25.048Z,101526.44
2023-02-11T00:26:55.999Z,101517.66
2023-02-11T00:29:25.681Z,101588.00
2023-02-11T00:31:54.390Z,101537.28
2023-02-11T00:34:26.122Z,101577.25
2023-02-11T00:36:55.655Z,101547.34
2023-02-11T00:39:28.634Z,101588.72
2023-02-11T00:41:57.654Z,101449.59
2023-02-11T00:44:28.797Z,101589.09
2023-02-11T00:46:57.375Z,101589.09
2023-02-11T00:49:26.213Z,101593.00
2023-02-11T00:51:54.783Z,101596.81
2023-02-11T00:54:23.514Z,101594.25
2023-02-11T00:56:52.021Z,101612.09
2023-02-11T00:59:20.856Z,101591.75
2023-02-11T01:01:49.621Z,101590.69
2023-02-11T01:04:18.412Z,101610.47
2023-02-11T01:06:47.259Z,101612.59
2023-02-11T01:09:15.935Z,101579.56
2023-02-11T01:11:45.077Z,101583.34
2023-02-11T01:14:13.767Z,101598.28
2023-02-11T01:16:42.606Z,101605.28
2023-02-11T01:19:11.239Z,101567.97
2023-02-11T01:21:39.902Z,101606.09
2023-02-11T01:24:08.809Z,101577.19
2023-02-11T01:26:37.792Z,101597.78
2023-02-11T01:29:06.482Z,101573.66
2023-02-11T01:31:35.301Z,101623.25
2023-02-11T01:34:04.119Z,101600.88
2023-02-11T01:36:32.748Z,101639.06
2023-02-11T01:39:01.982Z,101611.22
2023-02-11T01:41:30.738Z,101636.81
2023-02-11T01:43:59.249Z,101624.13
2023-02-11T01:46:38.553Z,101640.03
2023-02-11T01:49:22.371Z,101625.97
2023-02-11T01:52:26.331Z,101659.59
2023-02-11T01:55:18.969Z,101632.31
2023-02-11T01:57:53.494Z,101623.16
2023-02-11T02:00:39.904Z,101634.16
2023-02-11T02:03:23.334Z,101634.88
2023-02-11T02:06:00.309Z,101660.97
2023-02-11T02:08:57.902Z,101636.16
2023-02-11T02:11:26.940Z,101632.78
2023-02-11T02:13:55.888Z,101614.66
2023-02-11T02:16:33.368Z,101539.47
2023-02-11T02:19:21.385Z,101672.50
2023-02-11T02:21:53.073Z,101680.41
2023-02-11T02:24:59.478Z,101679.34
2023-02-11T02:27:50.309Z,101684.41
2023-02-11T02:30:40.935Z,101687.19
2023-02-11T02:33:38.571Z,101692.28
2023-02-11T02:36:22.518Z,101685.03
2023-02-11T02:39:01.492Z,101530.06
2023-02-11T02:41:33.847Z,101663.03
2023-02-11T02:44:03.433Z,101653.75
2023-02-11T02:46:34.589Z,101664.81
2023-02-11T02:49:03.479Z,101561.72
2023-02-11T02:51:59.095Z,101707.19
2023-02-11T02:55:05.933Z,101703.78
2023-02-11T02:58:06.593Z,101660.56
2023-02-11T03:01:07.539Z,101714.72
2023-02-11T03:03:54.929Z,101712.63
2023-02-11T03:06:53.400Z,101721.19
2023-02-11T03:09:38.720Z,101718.81
2023-02-11T03:12:09.804Z,101717.56
2023-02-11T03:14:39.806Z,101714.50
2023-02-11T03:17:10.162Z,101711.56
2023-02-11T03:19:45.564Z,101672.69
2023-02-11T03:22:38.480Z,101680.50
2023-02-11T03:25:07.799Z,101706.22
2023-02-11T03:27:53.163Z,101592.00
2023-02-11T03:30:33.980Z,101709.09
2023-02-11T03:33:15.480Z,101701.13
2023-02-11T03:35:51.892Z,101693.06
2023-02-11T03:38:39.126Z,101706.16
2023-02-11T03:41:10.743Z,101728.03
2023-02-11T03:43:47.261Z,101666.00
2023-02-11T03:46:20.613Z,101692.06
2023-02-11T03:49:03.770Z,101671.59
2023-02-11T03:51:37.086Z,101653.72
2023-02-11T03:54:11.647Z,101685.19
2023-02-11T03:56:51.935Z,101649.56
2023-02-11T03:59:20.625Z,101665.34
2023-02-11T04:01:52.081Z,101672.34
2023-02-11T04:04:21.163Z,101684.13
2023-02-11T04:06:49.951Z,101669.25
2023-02-11T04:09:18.600Z,101660.88
2023-02-11T04:11:47.425Z,101713.59
2023-02-11T04:14:16.102Z,101632.41
2023-02-11T04:16:45.379Z,101647.53
2023-02-11T04:19:14.288Z,101689.34
2023-02-11T04:21:42.714Z,101684.19
2023-02-11T04:24:11.828Z,101586.59
2023-02-11T04:26:40.974Z,101679.19
2023-02-11T04:29:09.900Z,101583.50
2023-02-11T04:31:38.455Z,101720.06
2023-02-11T04:34:07.547Z,101704.38
2023-02-11T04:36:36.540Z,101721.38
2023-02-11T04:39:05.763Z,101669.84
2023-02-11T04:41:34.984Z,101691.31
2023-02-11T04:44:03.846Z,101685.38
2023-02-11T04:46:32.658Z,101629.47
2023-02-11T04:49:01.452Z,101522.31
2023-02-11T04:51:30.962Z,101696.00
2023-02-11T04:53:59.601Z,101719.19
2023-02-11T04:56:28.384Z,101703.44
2023-02-11T04:58:59.463Z,101691.41
2023-02-11T05:01:28.166Z,101715.63
2023-02-11T05:03:57.920Z,101690.41
2023-02-11T05:06:26.869Z,101694.03
2023-02-11T05:08:55.600Z,101697.06
2023-02-11T05:11:28.712Z,101675.13
2023-02-11T05:13:58.022Z,101692.44
2023-02-11T05:16:26.834Z,101725.88
2023-02-11T05:18:56.629Z,101669.22
2023-02-11T05:21:26.023Z,101693.31
2023-02-11T05:23:54.861Z,101671.13
2023-02-11T05:26:23.655Z,101670.47
2023-02-11T05:28:52.223Z,101700.41
2023-02-11T05:31:21.218Z,101694.13
2023-02-11T05:33:49.790Z,101697.47
2023-02-11T05:36:18.760Z,101700.94
2023-02-11T05:38:49.785Z,101701.56
2023-02-11T05:41:18.444Z,101671.22
2023-02-11T05:43:51.731Z,101702.63
2023-02-11T05:46:20.769Z,101703.72
2023-02-11T05:48:49.526Z,101683.50
2023-02-11T05:51:18.321Z,101671.34
2023-02-11T05:53:47.090Z,101677.91
2023-02-11T05:56:16.011Z,101657.41
2023-02-11T05:58:44.737Z,101664.47
2023-02-11T06:01:13.956Z,101680.63
2023-02-11T06:03:42.874Z,101670.41
2023-02-11T06:06:13.630Z,101703.34
2023-02-11T06:08:42.510Z,101670.66
2023-02-11T06:11:16.256Z,101713.59
2023-02-11T06:13:45.161Z,101707.16
2023-02-11T06:16:14.169Z,101679.22
2023-02-11T06:18:43.142Z,101658.78
2023-02-11T06:21:13.168Z,101672.81
2023-02-11T06:23:42.450Z,101692.19
2023-02-11T06:26:22.448Z,101682.84
2023-02-11T06:28:51.491Z,101692.00
2023-02-11T06:31:20.641Z,101692.09
2023-02-11T06:33:50.948Z,101712.97
2023-02-11T06:36:21.772Z,101596.66
2023-02-11T06:38:51.132Z,101729.41
2023-02-11T06:41:23.252Z,101720.25
2023-02-11T06:43:53.897Z,101694.44
2023-02-11T06:46:23.511Z,101676.47
2023-02-11T06:48:52.432Z,101708.41
2023-02-11T06:51:20.990Z,101705.84
2023-02-11T06:53:49.846Z,101666.16
2023-02-11T06:56:21.432Z,101711.19
2023-02-11T06:58:54.331Z,101706.13
2023-02-11T07:01:24.648Z,101710.50
2023-02-11T07:03:53.632Z,101729.44
2023-02-11T07:06:28.031Z,101687.06
2023-02-11T07:08:57.362Z,101708.19
2023-02-11T07:11:32.826Z,101727.56
2023-02-11T07:14:09.242Z,101744.75
2023-02-11T07:16:39.316Z,101712.00
2023-02-11T07:19:08.140Z,101730.94
2023-02-11T07:21:36.649Z,101710.63
2023-02-11T07:24:11.571Z,101706.25
2023-02-11T07:26:40.596Z,101703.44
2023-02-11T07:29:09.572Z,101715.22
2023-02-11T07:31:38.303Z,101700.72
2023-02-11T07:34:07.151Z,101696.16
2023-02-11T07:36:36.073Z,101720.44
2023-02-11T07:39:04.871Z,101715.78
2023-02-11T07:41:37.633Z,101698.97
2023-02-11T07:44:06.916Z,101708.13
2023-02-11T07:46:36.489Z,101741.13
2023-02-11T07:49:05.099Z,101734.63
2023-02-11T07:51:33.773Z,101699.28
2023-02-11T07:54:03.611Z,101771.41
2023-02-11T07:56:33.477Z,101704.97
2023-02-11T07:59:04.286Z,101723.09
2023-02-11T08:01:32.976Z,101748.72
2023-02-11T08:04:03.772Z,101732.25
2023-02-11T08:06:35.371Z,101700.22
2023-02-11T08:09:10.032Z,101699.22
2023-02-11T08:11:38.858Z,101685.09
2023-02-11T08:14:07.655Z,101696.03
2023-02-11T08:16:39.575Z,101720.53
2023-02-11T08:19:14.408Z,101703.31
2023-02-11T08:21:43.807Z,101728.25
2023-02-11T08:24:12.782Z,101735.78
2023-02-11T08:26:41.702Z,101712.06
2023-02-11T08:29:15.165Z,101700.59
2023-02-11T08:31:46.728Z,101739.75
2023-02-11T08:34:19.783Z,101710.00
2023-02-11T08:36:49.796Z,101726.75
2023-02-11T08:39:21.987Z,101688.53
2023-02-11T08:41:53.546Z,101702.56
2023-02-11T08:44:23.083Z,101732.41
2023-02-11T08:46:52.446Z,101630.84
2023-02-11T08:49:21.745Z,101707.16
2023-02-11T08:51:51.108Z,101743.09
2023-02-11T08:54:20.332Z,101706.16
2023-02-11T08:56:52.528Z,101629.03
2023-02-11T08:59:21.399Z,101693.00
2023-02-11T09:01:51.120Z,101732.47
2023-02-11T09:04:20.221Z,101699.22
2023-02-11T09:06:49.147Z,101736.38
2023-02-11T09:09:18.282Z,101687.59
2023-02-11T09:11:48.677Z,101709.59
2023-02-11T09:14:20.762Z,101687.47
2023-02-11T09:16:50.836Z,101705.38
2023-02-11T09:19:20.866Z,101702.91
2023-02-11T09:21:49.733Z,101713.97
2023-02-11T09:24:19.258Z,101708.34
2023-02-11T09:26:48.167Z,101696.72
2023-02-11T09:29:17.381Z,101702.03
2023-02-11T09:31:46.090Z,101708.34
2023-02-11T09:34:16.598Z,101697.59
2023-02-11T09:36:45.619Z,101698.69
2023-02-11T09:39:18.427Z,101689.00
2023-02-11T09:42:25.463Z,101738.31
2023-02-11T09:44:54.441Z,101706.28
2023-02-11T09:47:31.031Z,101713.78
2023-02-11T09:50:07.850Z,101697.50
2023-02-11T09:52:52.372Z,101715.84
2023-02-11T09:55:29.901Z,101720.59
2023-02-11T09:57:59.622Z,101693.53
2023-02-11T10:00:45.829Z,101707.72
2023-02-11T10:03:43.542Z,101711.06
2023-02-11T10:06:40.097Z,101715.06
2023-02-11T10:09:45.211Z,101721.69
2023-02-11T10:12:32.590Z,101725.34
2023-02-11T10:15:21.482Z,101685.22
2023-02-11T10:18:03.209Z,101694.72
2023-02-11T10:20:59.759Z,101704.03
2023-02-11T10:23:34.103Z,101675.19
2023-02-11T10:26:13.547Z,101692.66
2023-02-11T10:28:46.832Z,101708.13
2023-02-11T10:31:36.857Z,101701.91
2023-02-11T10:34:12.976Z,101673.06
2023-02-11T10:36:44.889Z,101681.03
2023-02-11T10:39:16.958Z,101592.50
2023-02-11T10:41:51.541Z,101717.25
2023-02-11T10:44:31.299Z,101696.13
2023-02-11T10:47:05.957Z,101665.97
2023-02-11T10:49:40.735Z,101667.06
2023-02-11T10:52:36.198Z,101699.63
2023-02-11T10:55:15.456Z,101700.91
2023-02-11T10:58:04.652Z,101690.31
2023-02-11T11:00:39.916Z,101700.22
2023-02-11T11:03:20.618Z,101672.94
2023-02-11T11:06:10.687Z,101682.19
2023-02-11T11:08:41.264Z,101700.56
2023-02-11T11:11:22.281Z,101705.63
2023-02-11T11:13:53.756Z,101704.72
2023-02-11T11:16:32.848Z,101705.00
2023-02-11T11:19:08.622Z,101717.84
2023-02-11T11:21:56.427Z,101719.00
2023-02-11T11:24:45.343Z,101697.72
2023-02-11T11:27:25.535Z,101706.31
2023-02-11T11:29:57.365Z,101680.44
2023-02-11T11:32:37.836Z,101707.88
2023-02-11T11:35:22.125Z,101714.09
2023-02-11T11:37:54.548Z,101728.94
2023-02-11T11:40:25.145Z,101710.69
2023-02-11T11:43:15.179Z,101724.91
2023-02-11T11:46:01.869Z,101725.53
2023-02-11T11:48:43.796Z,101723.38
2023-02-11T11:51:14.317Z,101710.19
2023-02-11T11:54:13.083Z,101741.56
2023-02-11T11:56:59.807Z,101690.97
2023-02-11T11:59:29.366Z,101710.56
2023-02-11T12:02:08.591Z,101726.38
2023-02-11T12:05:01.514Z,101701.81
2023-02-11T12:07:55.043Z,101722.28
2023-02-11T12:11:00.874Z,101686.94
2023-02-11T12:13:48.092Z,101722.50
2023-02-11T12:16:31.258Z,101726.13
2023-02-11T12:19:38.039Z,101731.84
2023-02-11T12:22:22.390Z,101678.78
2023-02-11T12:24:53.523Z,101721.28
2023-02-11T12:27:47.239Z,101721.63
2023-02-11T12:30:22.700Z,101682.59
2023-02-11T12:32:53.985Z,101728.16
2023-02-11T12:35:36.337Z,101718.63
2023-02-11T12:38:22.836Z,101729.91
2023-02-11T12:41:58.289Z,101683.38
2023-02-11T12:44:52.465Z,101703.09
2023-02-11T12:47:52.474Z,101704.22
2023-02-11T12:50:21.062Z,101741.38
2023-02-11T12:53:19.471Z,101749.75
2023-02-11T12:55:52.671Z,101674.78
2023-02-11T12:58:35.555Z,101723.00
2023-02-11T13:01:17.475Z,101718.22
2023-02-11T13:03:56.069Z,101731.25
2023-02-11T13:06:35.417Z,101720.75
2023-02-11T13:09:12.153Z,101704.22
2023-02-11T13:11:52.617Z,101712.38
2023-02-11T13:14:37.557Z,101721.94
2023-02-11T13:17:23.040Z,101666.34
2023-02-11T13:20:00.076Z,101729.06
2023-02-11T13:23:02.733Z,101765.47
2023-02-11T13:25:49.474Z,101737.94
2023-02-11T13:28:33.259Z,101760.56
2023-02-11T13:31:07.870Z,101760.28
2023-02-11T13:33:44.018Z,101748.66
2023-02-11T13:36:22.250Z,101720.84
2023-02-11T13:38:58.032Z,101700.44
2023-02-11T13:42:02.886Z,101752.66
2023-02-11T13:44:35.455Z,101717.00
2023-02-11T13:47:07.710Z,101740.91
2023-02-11T13:49:50.471Z,101717.13
2023-02-11T13:52:33.375Z,101752.41
2023-02-11T13:55:22.106Z,101707.22
2023-02-11T13:58:08.930Z,101745.63
2023-02-11T14:00:37.724Z,101751.28
2023-02-11T14:03:47.131Z,101754.28
2023-02-11T14:06:38.509Z,101744.19
2023-02-11T14:09:10.129Z,101748.06
2023-02-11T14:11:44.882Z,101738.84
2023-02-11T14:14:24.593Z,101743.31
2023-02-11T14:17:01.783Z,101755.19
2023-02-11T14:19:47.248Z,101709.66
2023-02-11T14:22:24.552Z,101630.19
2023-02-11T14:25:04.948Z,101702.03
2023-02-11T14:27:43.149Z,101723.56
2023-02-11T14:30:27.816Z,101735.16
2023-02-11T14:33:05.955Z,101744.47
2023-02-11T14:36:06.496Z,101722.75
2023-02-11T14:39:09.757Z,101769.97
2023-02-11T14:41:45.092Z,101736.34
2023-02-11T14:44:22.983Z,101730.41
2023-02-11T14:46:54.213Z,101729.19
2023-02-11T14:49:35.814Z,101751.25
2023-02-11T14:52:23.640Z,101789.72
2023-02-11T14:54:58.106Z,101747.06
2023-02-11T14:57:28.306Z,101665.47
2023-02-11T15:00:05.415Z,101754.50
2023-02-11T15:02:37.812Z,101746.66
2023-02-11T15:05:29.753Z,101764.69
2023-02-11T15:08:03.621Z,101728.44
2023-02-11T15:10:34.249Z,101764.84
2023-02-11T15:13:05.916Z,101758.03
2023-02-11T15:15:37.706Z,101640.03
2023-02-11T15:18:06.858Z,101750.94
2023-02-11T15:20:36.434Z,101768.13
2023-02-11T15:23:12.949Z,101748.59
2023-02-11T15:25:53.470Z,101749.84
2023-02-11T15:28:30.850Z,101735.97
2023-02-11T15:31:13.842Z,101778.53
2023-02-11T15:33:42.775Z,101655.06
2023-02-11T15:36:16.828Z,101732.13
2023-02-11T15:38:45.938Z,101748.41
2023-02-11T15:41:37.907Z,101776.81
2023-02-11T15:44:06.755Z,101768.84
2023-02-11T15:46:40.901Z,101759.09
2023-02-11T15:49:19.972Z,101727.13
2023-02-11T15:51:49.035Z,101753.16
2023-02-11T15:54:22.004Z,101764.44
2023-02-11T15:56:56.180Z,101733.34
2023-02-11T15:59:32.154Z,101644.00
2023-02-11T16:02:17.356Z,101736.16
2023-02-11T16:04:57.926Z,101767.84
2023-02-11T16:07:48.715Z,101716.63
2023-02-11T16:10:28.023Z,101711.78
2023-02-11T16:13:05.440Z,101728.78
2023-02-11T16:15:35.286Z,101763.41
2023-02-11T16:18:15.973Z,101742.06
2023-02-11T16:20:49.863Z,101753.34
2023-02-11T16:23:25.336Z,101765.00
2023-02-11T16:26:03.295Z,101712.19
2023-02-11T16:28:33.180Z,101744.91
2023-02-11T16:31:02.749Z,101732.75
2023-02-11T16:33:32.208Z,101727.16
2023-02-11T16:36:02.918Z,101637.28
2023-02-11T16:38:34.120Z,101638.78
2023-02-11T16:41:03.287Z,101760.13
2023-02-11T16:43:34.206Z,101759.25
2023-02-11T16:46:03.446Z,101623.56
2023-02-11T16:48:34.268Z,101765.88
2023-02-11T16:51:03.164Z,101758.19
2023-02-11T16:53:33.066Z,101739.78
2023-02-11T16:56:01.846Z,101723.69
2023-02-11T16:58:31.012Z,101751.66
2023-02-11T17:01:00.003Z,101759.94
2023-02-11T17:03:30.376Z,101743.22
2023-02-11T17:06:00.051Z,101695.09
2023-02-11T17:08:29.160Z,101761.72
2023-02-11T17:10:58.095Z,101702.38
2023-02-11T17:13:26.972Z,101725.03
2023-02-11T17:15:55.906Z,101740.13
2023-02-11T17:18:25.458Z,101742.91
2023-02-11T17:20:54.310Z,101699.66
2023-02-11T17:23:22.989Z,101717.38
2023-02-11T17:25:58.022Z,101743.44
2023-02-11T17:28:27.474Z,101699.94
2023-02-11T17:30:59.244Z,101749.91
2023-02-11T17:33:28.391Z,101707.59
2023-02-11T17:35:57.000Z,101693.81
2023-02-11T17:38:25.629Z,101740.59
2023-02-11T17:41:02.636Z,101703.41
2023-02-11T17:43:32.763Z,101734.34
2023-02-11T17:46:01.575Z,101700.91
2023-02-11T17:48:30.320Z,101617.84
2023-02-11T17:50:59.261Z,101734.81
2023-02-11T17:53:28.020Z,101701.13
2023-02-11T17:55:57.172Z,101685.91
2023-02-11T17:58:25.821Z,101730.03
2023-02-11T18:00:59.633Z,101723.91
2023-02-11T18:03:27.923Z,101731.16
2023-02-11T18:06:01.455Z,101727.75
2023-02-11T18:08:30.713Z,101724.97
2023-02-11T18:10:59.323Z,101688.50
2023-02-11T18:13:29.724Z,101676.31
2023-02-11T18:16:04.279Z,101702.19
2023-02-11T18:18:33.033Z,101737.16
2023-02-11T18:21:09.750Z,101605.38
2023-02-11T18:23:38.579Z,101692.69
2023-02-11T18:26:13.402Z,101738.28
2023-02-11T18:28:45.298Z,101711.31
2023-02-11T18:31:14.998Z,101728.19
2023-02-11T18:33:44.005Z,101741.22
2023-02-11T18:36:16.388Z,101706.09
2023-02-11T18:38:45.508Z,101738.19
2023-02-11T18:41:15.417Z,101718.50
2023-02-11T18:43:44.185Z,101741.09
2023-02-11T18:46:15.823Z,101715.59
2023-02-11T18:48:48.354Z,101700.44
2023-02-11T18:51:19.380Z,101755.00
2023-02-11T18:53:48.548Z,101703.94
2023-02-11T18:56:20.111Z,101719.38
2023-02-11T18:58:49.648Z,101724.56
2023-02-11T19:01:21.539Z,101601.44
2023-02-11T19:03:50.622Z,101691.47
2023-02-11T19:06:26.313Z,101699.00
2023-02-11T19:08:59.411Z,101741.75
2023-02-11T19:11:49.574Z,101701.59
2023-02-11T19:14:29.439Z,101699.97
2023-02-11T19:17:00.617Z,101701.44
2023-02-11T19:19:31.825Z,101700.88
2023-02-11T19:22:01.860Z,101730.44
2023-02-11T19:24:31.496Z,101714.69
2023-02-11T19:27:04.051Z,101583.13
2023-02-11T19:29:35.778Z,101674.06
2023-02-11T19:32:09.467Z,101664.63
2023-02-11T19:34:41.947Z,101700.56
2023-02-11T19:37:13.488Z,101695.22
2023-02-11T19:39:43.893Z,101726.81
2023-02-11T19:42:13.402Z,101711.84
2023-02-11T19:44:42.045Z,101698.13
2023-02-11T19:47:11.078Z,101689.94
2023-02-11T19:49:41.794Z,101690.09
2023-02-11T19:52:10.450Z,101737.13
2023-02-11T19:54:39.211Z,101719.91
2023-02-11T19:57:07.628Z,101591.72
2023-02-11T19:59:36.250Z,101666.47
2023-02-11T20:02:05.073Z,101716.50
2023-02-11T20:04:34.070Z,101681.16
2023-02-11T20:07:02.541Z,101659.28
2023-02-11T20:09:32.508Z,101678.03
2023-02-11T20:12:01.318Z,101720.56
2023-02-11T20:14:29.811Z,101657.41
2023-02-11T20:16:58.468Z,101590.56
2023-02-11T20:19:28.512Z,101715.41
2023-02-11T20:21:57.569Z,101687.25
2023-02-11T20:24:26.736Z,101685.38
2023-02-11T20:26:58.481Z,101714.91
2023-02-11T20:29:30.326Z,101675.38
2023-02-11T20:31:59.155Z,101717.28
2023-02-11T20:34:27.900Z,101658.25
2023-02-11T20:36:57.152Z,101678.03
2023-02-11T20:39:27.477Z,101677.81
2023-02-11T20:41:57.105Z,101678.91
2023-02-11T20:44:28.406Z,101719.81
2023-02-11T20:46:59.470Z,101704.38
2023-02-11T20:49:29.079Z,101674.38
2023-02-11T20:52:00.946Z,101676.16
2023-02-11T20:54:31.006Z,101704.59
2023-02-11T20:57:00.377Z,101685.91
2023-02-11T20:59:29.308Z,101679.03
2023-02-11T21:01:58.010Z,101683.28
2023-02-11T21:04:31.066Z,101692.59
2023-02-11T21:07:02.395Z,101678.25
2023-02-11T21:09:33.770Z,101692.75
2023-02-11T21:12:03.067Z,101595.66
2023-02-11T21:14:31.881Z,101644.69
2023-02-11T21:17:00.739Z,101698.06
2023-02-11T21:19:29.517Z,101726.53
2023-02-11T21:22:01.283Z,101695.38
2023-02-11T21:24:31.649Z,101739.88
2023-02-11T21:27:00.432Z,101681.59
2023-02-11T21:29:34.008Z,101704.22
2023-02-11T21:32:05.690Z,101724.84
2023-02-11T21:34:34.533Z,101738.34
2023-02-11T21:37:04.492Z,101706.66
2023-02-11T21:39:33.315Z,101678.56
2023-02-11T21:42:01.954Z,101680.69
2023-02-11T21:44:32.751Z,101717.53
2023-02-11T21:47:03.703Z,101583.75
2023-02-11T21:49:32.492Z,101718.25
2023-02-11T21:52:01.356Z,101728.06
2023-02-11T21:54:32.751Z,101593.38
2023-02-11T21:57:03.657Z,101678.19
2023-02-11T21:59:35.235Z,101678.25
2023-02-11T22:02:03.769Z,101570.16
2023-02-11T22:04:32.450Z,101721.03
2023-02-11T22:07:01.257Z,101704.78
2023-02-11T22:09:30.615Z,101687.38
2023-02-11T22:11:59.735Z,101728.47
2023-02-11T22:14:30.648Z,101684.63
2023-02-11T22:17:03.402Z,101674.88
2023-02-11T22:19:37.954Z,101703.53
2023-02-11T22:22:08.756Z,101713.13
2023-02-11T22:24:37.555Z,101699.78
2023-02-11T22:27:06.234Z,101711.53
2023-02-11T22:29:34.944Z,101699.25
2023-02-11T22:32:03.637Z,101690.00
2023-02-11T22:34:32.654Z,101731.50
2023-02-11T22:37:02.913Z,101747.25
2023-02-11T22:39:32.168Z,101712.47
2023-02-11T22:42:00.888Z,101730.25
2023-02-11T22:44:29.748Z,101709.25
2023-02-11T22:46:58.851Z,101707.47
2023-02-11T22:49:27.846Z,101688.47
2023-02-11T22:51:56.573Z,101582.63
2023-02-11T22:54:25.206Z,101684.44
2023-02-11T22:56:54.344Z,101675.59
2023-02-11T22:59:23.126Z,101576.72
2023-02-11T23:01:51.901Z,101717.25
2023-02-11T23:04:21.712Z,101654.19
2023-02-11T23:06:51.024Z,101707.13
2023-02-11T23:09:19.789Z,101565.31
2023-02-11T23:11:50.103Z,101663.84
2023-02-11T23:14:18.969Z,101679.88
2023-02-11T23:16:50.740Z,101706.56
2023-02-11T23:19:20.269Z,101714.09
2023-02-11T23:21:53.407Z,101710.59
2023-02-11T23:24:24.286Z,101623.34
2023-02-11T23:26:52.986Z,101701.25
2023-02-11T23:29:21.809Z,101680.44
2023-02-11T23:31:50.811Z,101699.34
2023-02-11T23:34:24.508Z,101687.81
2023-02-11T23:36:53.518Z,101694.03
2023-02-11T23:39:22.189Z,101648.13
2023-02-11T23:41:53.092Z,101668.19
2023-02-11T23:44:21.977Z,101670.47
2023-02-11T23:46:53.294Z,101652.41
2023-02-11T23:49:22.152Z,101650.25
2023-02-11T23:51:50.696Z,101665.88
2023-02-11T23:54:21.798Z,101622.66
2023-02-11T23:56:50.492Z,101715.41
2023-02-11T23:59:19.029Z,101691.06
